Time;durP1;ratioP1;P1;durP2;ratioP2;P2;SDS_P1;SDS_P2;PMS_P1;PMS_P2;Temp;Humidity;BMP_temperature;BMP_pressure;BME280_temperature;BME280_humidity;BME280_pressure;Samples;Min_cycle;Max_cycle;Signal;HPM_P1;HPM_P2
2021/08/14 00:01:06;;;;;;;19.17;3.88;;;;;;;12.83;91.50;101368.97;4985929;28;20045;-84
2021/08/14 00:03:32;;;;;;;17.45;3.80;;;;;;;12.76;91.56;101352.66;5002801;28;20393;-85
2021/08/14 00:05:58;;;;;;;23.58;4.85;;;;;;;12.78;91.94;101358.72;5003035;28;20100;-86
2021/08/14 00:08:24;;;;;;;17.35;4.38;;;;;;;12.91;92.26;101375.19;4977515;28;20388;-85
2021/08/14 00:10:49;;;;;;;20.10;4.72;;;;;;;12.88;92.30;101375.50;4985362;28;20512;-85
2021/08/14 00:13:15;;;;;;;13.77;3.70;;;;;;;12.94;92.79;101371.28;5005317;28;20029;-85
2021/08/14 00:15:41;;;;;;;21.27;4.78;;;;;;;13.03;92.63;101383.72;4991025;28;20429;-85
2021/08/14 00:18:07;;;;;;;19.38;4.43;;;;;;;13.11;92.37;101382.84;4991312;28;20036;-85
2021/08/14 00:20:32;;;;;;;16.73;4.28;;;;;;;13.19;92.33;101383.63;4994304;28;20092;-84
2021/08/14 00:23:00;;;;;;;13.48;4.00;;;;;;;13.22;92.18;101387.00;4999494;28;20607;-85
2021/08/14 00:25:26;;;;;;;13.98;3.95;;;;;;;13.31;91.59;101389.50;4989194;28;20034;-85
2021/08/14 00:27:52;;;;;;;11.25;3.40;;;;;;;13.22;91.61;101371.63;4971624;28;20033;-83
2021/08/14 00:30:18;;;;;;;11.13;3.30;;;;;;;13.26;91.58;101378.41;4973487;28;20039;-85
2021/08/14 00:32:44;;;;;;;16.38;3.67;;;;;;;13.29;91.10;101374.50;4971422;28;20033;-84
2021/08/14 00:35:10;;;;;;;12.18;3.47;;;;;;;13.31;90.84;101384.09;5001871;28;20052;-86
2021/08/14 00:37:36;;;;;;;19.98;3.53;;;;;;;13.04;91.03;101342.19;4986030;28;20053;-84
2021/08/14 00:40:02;;;;;;;14.25;3.38;;;;;;;13.29;90.92;101379.91;5000437;28;20824;-85
2021/08/14 00:42:28;;;;;;;11.98;3.80;;;;;;;13.18;90.96;101364.91;4988039;28;20029;-85
2021/08/14 00:44:54;;;;;;;16.00;3.65;;;;;;;13.17;91.36;101368.63;4985838;28;20034;-84
2021/08/14 00:47:24;;;;;;;21.42;5.10;;;;;;;13.14;91.51;101361.72;4986302;28;20400;-84
2021/08/14 00:49:50;;;;;;;12.95;3.88;;;;;;;13.15;91.30;101352.59;4990108;28;20048;-85
2021/08/14 00:52:15;;;;;;;16.17;4.55;;;;;;;13.22;91.46;101352.72;5000207;28;20497;-85
2021/08/14 00:54:41;;;;;;;17.15;3.70;;;;;;;13.18;91.19;101352.25;5004892;28;20037;-84
2021/08/14 00:57:07;;;;;;;14.07;3.88;;;;;;;13.23;90.95;101356.25;4991201;28;20061;-84
2021/08/14 00:59:33;;;;;;;14.60;3.50;;;;;;;13.26;91.11;101356.78;4987490;28;20014;-85
2021/08/14 01:02:01;;;;;;;17.65;3.85;;;;;;;13.22;91.09;101346.47;4984519;28;20034;-85
2021/08/14 01:04:29;;;;;;;14.48;3.72;;;;;;;13.30;90.77;101360.78;4995673;28;20030;-84
2021/08/14 01:06:54;;;;;;;15.88;3.55;;;;;;;13.31;90.99;101353.53;5002356;28;20039;-84
2021/08/14 01:09:20;;;;;;;12.18;3.70;;;;;;;13.30;90.97;101352.69;4987263;28;20033;-85
2021/08/14 01:11:46;;;;;;;12.25;3.72;;;;;;;13.16;90.89;101324.56;4981231;28;20400;-86
2021/08/14 01:14:13;;;;;;;16.95;4.75;;;;;;;13.27;90.75;101346.81;4988671;28;20030;-84
2021/08/14 01:16:38;;;;;;;13.48;4.10;;;;;;;13.12;90.68;101325.94;5020463;28;20037;-85
2021/08/14 01:19:04;;;;;;;14.98;3.63;;;;;;;13.28;91.16;101353.88;4985502;28;20493;-85
2021/08/14 01:21:30;;;;;;;13.00;3.72;;;;;;;13.25;91.02;101348.81;4980935;28;20026;-83
2021/08/14 01:23:57;;;;;;;15.73;3.85;;;;;;;13.25;90.80;101355.06;4991266;28;20025;-84
2021/08/14 01:26:23;;;;;;;14.30;4.15;;;;;;;13.22;91.27;101351.88;4981788;28;20053;-85
2021/08/14 01:28:49;;;;;;;22.33;4.15;;;;;;;13.24;91.06;101353.38;4962002;28;20041;-85
2021/08/14 01:31:16;;;;;;;17.80;3.78;;;;;;;13.18;91.27;101348.72;5002235;28;20022;-86
2021/08/14 01:33:43;;;;;;;14.85;3.55;;;;;;;12.97;91.28;101327.75;5003771;28;20105;-85
2021/08/14 01:36:10;;;;;;;15.57;3.58;;;;;;;12.92;91.47;101322.03;4987359;28;20122;-85
2021/08/14 01:38:57;;;;;;;14.20;3.92;;;;;;;13.04;91.01;101325.16;5003358;28;20030;-85
2021/08/14 01:41:23;;;;;;;7.07;2.95;;;;;;;13.09;90.90;101330.88;5003197;28;20033;-85
2021/08/14 01:44:03;;;;;;;15.45;4.30;;;;;;;13.08;91.15;101335.44;4987726;28;20480;-85
2021/08/14 01:46:35;;;;;;;10.63;3.47;;;;;;;13.01;91.28;101330.91;4997320;28;20029;-87
2021/08/14 01:49:01;;;;;;;18.48;4.03;;;;;;;12.88;91.28;101328.78;4977435;28;20913;-84
2021/08/14 01:51:29;;;;;;;14.85;3.55;;;;;;;12.76;91.73;101325.66;4964109;28;20033;-85
2021/08/14 01:53:57;;;;;;;10.43;3.47;;;;;;;12.73;91.93;101334.13;4983173;28;20484;-85
2021/08/14 01:56:24;;;;;;;11.77;3.53;;;;;;;12.72;92.20;101344.03;4985934;28;20030;-85
2021/08/14 01:58:50;;;;;;;10.73;3.20;;;;;;;12.55;92.42;101315.47;4989677;28;20025;-83
2021/08/14 02:01:16;;;;;;;16.08;3.63;;;;;;;12.65;92.01;101323.31;4991946;28;20527;-85
2021/08/14 02:03:43;;;;;;;11.32;3.33;;;;;;;12.74;91.48;101339.31;4989456;28;20029;-84
2021/08/14 02:06:08;;;;;;;11.15;3.60;;;;;;;12.68;91.37;101334.63;4970188;28;20037;-83
2021/08/14 02:08:35;;;;;;;14.35;3.97;;;;;;;12.68;91.47;101331.94;4994422;28;20026;-85
2021/08/14 02:11:03;;;;;;;7.55;2.97;;;;;;;12.62;91.56;101321.84;5002842;28;20505;-84
2021/08/14 02:13:30;;;;;;;12.48;3.40;;;;;;;12.59;91.72;101332.97;5005505;28;20424;-84
2021/08/14 02:15:56;;;;;;;12.45;3.60;;;;;;;12.58;91.54;101320.50;4990394;28;20054;-85
2021/08/14 02:18:22;;;;;;;11.63;3.95;;;;;;;12.69;91.88;101332.75;5000561;28;20507;-85
2021/08/14 02:20:47;;;;;;;14.40;5.43;;;;;;;12.67;91.94;101327.53;5005304;28;20038;-84
2021/08/14 02:23:13;;;;;;;11.93;3.30;;;;;;;12.69;91.70;101327.38;4996878;28;20078;-85
2021/08/14 02:25:39;;;;;;;12.80;4.13;;;;;;;12.70;91.46;101319.13;5008575;28;20029;-85
2021/08/14 02:28:04;;;;;;;16.30;3.90;;;;;;;12.80;91.17;101326.97;4979982;28;20034;-86
2021/08/14 02:30:30;;;;;;;10.98;3.58;;;;;;;12.79;91.26;101316.38;4987089;28;20022;-88
2021/08/14 02:32:56;;;;;;;12.77;3.42;;;;;;;12.84;90.96;101324.78;4994944;28;20049;-88
2021/08/14 02:35:21;;;;;;;8.85;3.50;;;;;;;12.65;90.89;101294.50;5002915;28;20033;-86
2021/08/14 02:37:47;;;;;;;13.65;3.47;;;;;;;12.63;91.13;101296.53;4982744;28;20029;-86
2021/08/14 02:40:12;;;;;;;10.18;3.08;;;;;;;12.75;91.34;101315.88;4999998;28;20026;-87
2021/08/14 02:42:44;;;;;;;10.93;4.97;;;;;;;12.71;91.51;101309.16;4996815;28;20030;-86
2021/08/14 02:45:11;;;;;;;11.40;3.10;;;;;;;12.68;91.19;101304.94;5012189;28;20383;-87
2021/08/14 02:47:38;;;;;;;10.95;3.35;;;;;;;12.54;91.21;101286.78;5000991;28;20064;-86
2021/08/14 02:50:04;;;;;;;13.68;3.10;;;;;;;12.75;91.13;101316.72;5027487;28;20038;-85
2021/08/14 02:52:30;;;;;;;5.97;2.90;;;;;;;12.66;91.04;101300.75;4983621;28;20030;-87
2021/08/14 02:54:55;;;;;;;14.38;3.45;;;;;;;12.67;91.08;101297.03;4980835;28;20026;-85
2021/08/14 02:57:21;;;;;;;10.32;3.10;;;;;;;12.68;90.79;101298.72;4980829;28;20026;-85
2021/08/14 02:59:47;;;;;;;12.07;3.70;;;;;;;12.74;91.20;101303.41;4985573;28;20026;-86
2021/08/14 03:02:12;;;;;;;12.18;3.42;;;;;;;12.72;91.21;101303.56;5007584;28;20044;-87
2021/08/14 03:04:38;;;;;;;16.73;3.72;;;;;;;12.76;91.22;101307.59;4991432;28;20663;-85
2021/08/14 03:07:04;;;;;;;16.67;4.03;;;;;;;12.68;91.77;101291.47;4987576;28;20026;-86
2021/08/14 03:09:29;;;;;;;16.95;3.72;;;;;;;12.72;92.15;101290.06;4989599;28;20025;-85
2021/08/14 03:11:55;;;;;;;12.18;3.97;;;;;;;12.73;92.16;101286.38;4989543;28;20026;-85
2021/08/14 03:14:20;;;;;;;13.93;3.95;;;;;;;12.82;91.94;101289.84;4985549;28;20018;-86
2021/08/14 03:16:46;;;;;;;14.55;3.95;;;;;;;12.81;91.73;101285.50;4998627;28;20026;-85
2021/08/14 03:19:12;;;;;;;11.25;3.50;;;;;;;12.87;91.87;101305.53;5000945;28;20385;-86
2021/08/14 03:21:37;;;;;;;9.27;3.28;;;;;;;12.90;91.58;101305.16;4989367;28;20054;-86
2021/08/14 03:24:03;;;;;;;13.20;3.80;;;;;;;12.90;91.55;101305.16;5001779;28;20096;-85
2021/08/14 03:26:29;;;;;;;13.25;3.83;;;;;;;12.92;91.47;101303.13;4988487;28;20104;-86
2021/08/14 03:28:55;;;;;;;9.90;3.15;;;;;;;12.81;91.30;101287.31;4984192;28;20021;-85
2021/08/14 03:31:21;;;;;;;11.07;3.53;;;;;;;12.82;91.32;101297.13;4989317;28;20025;-85
2021/08/14 03:33:50;;;;;;;8.63;3.45;;;;;;;12.65;91.64;101275.63;5001375;28;20413;-86
2021/08/14 03:36:17;;;;;;;8.43;3.13;;;;;;;12.78;91.61;101310.13;4988263;28;20030;-86
2021/08/14 03:38:43;;;;;;;8.10;3.50;;;;;;;12.73;91.94;101307.13;5003164;28;20152;-85
2021/08/14 03:41:08;;;;;;;7.18;2.83;;;;;;;12.68;92.28;101299.56;4981143;28;20670;-87
2021/08/14 03:43:35;;;;;;;9.85;3.08;;;;;;;12.72;92.55;101308.97;5004144;28;20388;-85
2021/08/14 03:46:01;;;;;;;8.40;3.15;;;;;;;12.64;92.62;101289.28;5001777;28;20014;-86
2021/08/14 03:48:27;;;;;;;14.02;3.80;;;;;;;12.70;92.35;101308.31;4999164;28;20052;-86
2021/08/14 03:50:53;;;;;;;8.30;3.30;;;;;;;12.64;92.26;101298.22;4998313;28;20112;-86
2021/08/14 03:53:19;;;;;;;9.07;2.83;;;;;;;12.61;92.72;101293.19;4995593;28;20391;-84
2021/08/14 03:55:44;;;;;;;10.75;3.25;;;;;;;12.49;93.08;101287.34;4993003;28;20392;-85
2021/08/14 03:58:10;;;;;;;9.57;3.08;;;;;;;12.48;93.20;101295.59;4986957;28;20515;-86
2021/08/14 04:00:36;;;;;;;10.70;2.97;;;;;;;12.49;93.07;101284.66;4988924;28;20025;-86
2021/08/14 04:03:02;;;;;;;8.43;2.92;;;;;;;12.39;93.10;101288.56;5001663;28;20030;-87
2021/08/14 04:05:27;;;;;;;16.10;3.28;;;;;;;12.39;93.60;101291.25;4989241;28;20022;-85
2021/08/14 04:07:53;;;;;;;9.48;3.55;;;;;;;12.43;93.36;101292.59;5021977;28;20378;-87
2021/08/14 04:10:19;;;;;;;8.90;3.28;;;;;;;12.47;93.31;101289.38;5006137;28;20677;-87
2021/08/14 04:12:45;;;;;;;11.05;3.08;;;;;;;12.54;93.17;101292.19;4993106;28;20057;-86
2021/08/14 04:15:11;;;;;;;14.30;3.53;;;;;;;12.56;93.36;101300.94;5001099;28;20030;-86
2021/08/14 04:17:37;;;;;;;12.65;3.70;;;;;;;12.52;93.41;101300.47;5003310;28;20036;-86
2021/08/14 04:20:04;;;;;;;10.18;3.28;;;;;;;12.56;93.19;101295.56;5001877;28;20026;-85
2021/08/14 04:22:30;;;;;;;7.88;3.17;;;;;;;12.45;92.95;101271.69;4991749;28;20084;-86
2021/08/14 04:24:55;;;;;;;8.63;3.15;;;;;;;12.53;93.29;101272.47;4984938;28;20022;-86
2021/08/14 04:27:21;;;;;;;12.57;4.70;;;;;;;12.52;93.21;101270.81;5000932;28;20502;-84
2021/08/14 04:29:46;;;;;;;7.80;2.97;;;;;;;12.63;92.92;101288.44;5003467;28;20445;-86
2021/08/14 04:32:12;;;;;;;11.95;3.35;;;;;;;12.54;93.19;101276.88;4986364;28;20492;-86
2021/08/14 04:34:38;;;;;;;12.52;3.33;;;;;;;12.66;93.22;101290.78;4989462;28;20042;-85
2021/08/14 04:37:04;;;;;;;11.52;3.63;;;;;;;12.54;93.00;101263.38;5001335;28;20049;-85
2021/08/14 04:39:29;;;;;;;9.20;3.38;;;;;;;12.65;92.99;101282.84;5002702;28;20045;-86
2021/08/14 04:41:55;;;;;;;16.98;3.22;;;;;;;12.61;92.95;101271.59;4985724;28;20393;-85
2021/08/14 04:44:21;;;;;;;11.15;3.55;;;;;;;12.59;93.12;101262.00;4982113;28;20037;-85
2021/08/14 04:46:46;;;;;;;10.18;3.22;;;;;;;12.61;92.99;101271.59;4987250;28;20038;-86
2021/08/14 04:49:12;;;;;;;11.35;3.30;;;;;;;12.52;92.89;101270.81;4977729;28;20030;-85
2021/08/14 04:51:38;;;;;;;12.60;3.38;;;;;;;12.51;92.54;101274.50;5005015;28;20088;-86
2021/08/14 04:54:04;;;;;;;10.68;3.35;;;;;;;12.55;92.86;101275.00;5001186;28;20026;-85
2021/08/14 04:56:29;;;;;;;10.88;2.90;;;;;;;12.56;92.95;101273.97;4986495;28;20040;-87
2021/08/14 04:58:55;;;;;;;13.10;3.03;;;;;;;12.52;92.74;101272.66;4990811;28;20022;-86
2021/08/14 05:01:21;;;;;;;8.80;3.85;;;;;;;12.60;93.10;101280.72;4989976;28;20030;-85
2021/08/14 05:03:46;;;;;;;10.13;3.67;;;;;;;12.57;92.94;101275.69;5001360;28;20428;-87
2021/08/14 05:06:12;;;;;;;7.75;3.30;;;;;;;12.59;93.11;101270.09;5005121;28;20021;-86
2021/08/14 05:08:38;;;;;;;11.88;3.00;;;;;;;12.58;93.28;101253.06;5001032;28;20030;-86
2021/08/14 05:11:04;;;;;;;10.52;3.33;;;;;;;12.65;93.30;101259.44;4970976;28;20053;-85
2021/08/14 05:13:30;;;;;;;12.73;4.18;;;;;;;12.45;93.17;101239.31;5000108;28;20031;-86
2021/08/14 05:15:56;;;;;;;10.35;3.75;;;;;;;12.61;93.03;101277.00;4992322;28;20858;-85
2021/08/14 05:18:21;;;;;;;9.77;3.45;;;;;;;12.53;93.41;101267.06;4997789;28;20025;-85
2021/08/14 05:20:47;;;;;;;12.40;3.95;;;;;;;12.63;93.33;101272.25;4988625;28;20045;-84
2021/08/14 05:23:13;;;;;;;9.23;3.63;;;;;;;12.61;93.21;101262.66;4974056;28;20026;-85
2021/08/14 05:25:38;;;;;;;14.18;4.20;;;;;;;12.61;93.39;101265.38;4990711;28;20030;-85
2021/08/14 05:28:04;;;;;;;8.18;3.60;;;;;;;12.58;93.62;101263.84;4995984;28;20072;-85
2021/08/14 05:30:30;;;;;;;12.13;3.80;;;;;;;12.63;93.58;101274.97;4993365;28;20045;-87
2021/08/14 05:32:55;;;;;;;7.53;3.15;;;;;;;12.55;93.91;101258.81;4992142;28;20477;-85
2021/08/14 05:35:21;;;;;;;12.77;3.50;;;;;;;12.61;93.50;101268.06;4984941;28;20029;-86
2021/08/14 05:37:47;;;;;;;10.77;3.47;;;;;;;12.63;93.60;101274.97;4992156;28;20033;-86
2021/08/14 05:40:13;;;;;;;10.32;3.03;;;;;;;12.60;93.68;101255.59;5004977;28;20029;-83
2021/08/14 05:42:38;;;;;;;9.85;2.70;;;;;;;12.54;93.58;101243.63;4994571;28;20940;-85
2021/08/14 05:45:05;;;;;;;9.05;3.10;;;;;;;12.60;93.43;101255.59;5006115;28;20022;-86
2021/08/14 05:47:31;;;;;;;10.77;2.83;;;;;;;12.59;93.37;101259.28;4989308;28;20075;-86
2021/08/14 05:49:57;;;;;;;18.48;4.68;;;;;;;12.54;93.93;101259.81;4983911;28;20022;-86
2021/08/14 05:52:23;;;;;;;9.13;2.85;;;;;;;12.47;93.79;101264.25;4982713;28;20145;-86
2021/08/14 05:54:49;;;;;;;10.15;3.22;;;;;;;12.18;94.28;101222.59;5006879;28;20428;-85
2021/08/14 05:57:15;;;;;;;8.10;3.00;;;;;;;12.50;94.18;101270.13;4993259;28;20480;-86
2021/08/14 05:59:41;;;;;;;10.00;3.97;;;;;;;12.31;94.04;101232.81;5002581;28;20049;-85
2021/08/14 06:02:06;;;;;;;10.70;3.28;;;;;;;12.50;94.18;101266.59;5012190;28;20034;-85
2021/08/14 06:04:32;;;;;;;8.85;2.80;;;;;;;12.45;94.23;101258.19;4975506;28;20103;-86
2021/08/14 06:06:58;;;;;;;7.85;3.40;;;;;;;12.45;94.20;101255.50;5008547;28;20100;-85
2021/08/14 06:09:24;;;;;;;10.77;2.95;;;;;;;12.45;94.51;101250.09;5002439;28;20452;-86
2021/08/14 06:11:49;;;;;;;10.63;3.22;;;;;;;12.34;94.62;101237.84;5009166;28;20065;-86
2021/08/14 06:14:15;;;;;;;14.80;4.00;;;;;;;12.48;94.71;101257.84;4994358;28;20033;-85
2021/08/14 06:16:41;;;;;;;8.00;3.33;;;;;;;12.43;94.16;101239.47;4991018;28;20034;-86
2021/08/14 06:19:06;;;;;;;11.48;3.28;;;;;;;12.50;94.67;101247.72;4991646;28;20018;-87
2021/08/14 06:21:32;;;;;;;9.02;3.35;;;;;;;12.47;94.75;101242.69;4993685;28;20064;-86
2021/08/14 06:23:58;;;;;;;8.40;3.10;;;;;;;12.47;94.51;101238.13;4992891;28;20028;-86
2021/08/14 06:26:24;;;;;;;9.45;3.63;;;;;;;12.46;94.75;101236.44;5007448;28;20026;-85
2021/08/14 06:28:50;;;;;;;11.32;3.95;;;;;;;12.35;94.82;101220.66;5009408;28;20034;-85
2021/08/14 06:31:16;;;;;;;8.32;3.50;;;;;;;12.56;94.42;101241.59;4989179;28;20025;-86
2021/08/14 06:33:43;;;;;;;10.25;3.22;;;;;;;12.49;94.51;101221.75;4985402;28;20038;-86
2021/08/14 06:36:08;;;;;;;8.18;3.05;;;;;;;12.63;94.53;101242.59;4993540;28;20021;-86
2021/08/14 06:38:36;;;;;;;12.38;3.90;;;;;;;12.65;94.46;101237.00;4994208;28;20036;-85
2021/08/14 06:41:02;;;;;;;7.30;3.15;;;;;;;12.67;94.38;101232.28;4971122;28;20030;-85
2021/08/14 06:43:28;;;;;;;12.55;3.38;;;;;;;12.60;94.70;101225.94;4989755;28;20072;-85
2021/08/14 06:45:54;;;;;;;12.70;3.53;;;;;;;12.63;94.79;101237.19;5002594;28;20020;-87
2021/08/14 06:48:19;;;;;;;10.27;3.45;;;;;;;12.68;94.73;101234.81;4991784;28;20109;-86
2021/08/14 06:50:45;;;;;;;8.98;3.10;;;;;;;12.68;94.39;101234.81;4992010;28;20057;-86
2021/08/14 06:53:11;;;;;;;8.07;3.95;;;;;;;12.63;94.70;101222.88;5004926;28;20456;-85
2021/08/14 06:55:36;;;;;;;9.45;3.70;;;;;;;12.70;94.86;101230.06;4994255;28;20100;-84
2021/08/14 06:58:02;;;;;;;7.07;3.45;;;;;;;12.64;94.48;101225.38;4973238;28;20022;-85
2021/08/14 07:00:28;;;;;;;10.27;3.60;;;;;;;12.72;94.81;101235.28;4989753;28;20026;-86
2021/08/14 07:02:54;;;;;;;9.60;3.63;;;;;;;12.69;94.81;101225.69;4990524;28;20053;-86
2021/08/14 07:05:20;;;;;;;8.68;3.63;;;;;;;12.75;94.61;101233.09;4992726;28;20033;-85
2021/08/14 07:07:46;;;;;;;9.50;4.15;;;;;;;12.72;94.66;101219.91;4992113;28;20117;-86
2021/08/14 07:10:11;;;;;;;11.25;3.67;;;;;;;12.74;94.52;101223.28;5025459;28;20076;-84
2021/08/14 07:12:37;;;;;;;10.98;3.22;;;;;;;12.81;94.50;101222.56;5009148;28;20033;-85
2021/08/14 07:15:05;;;;;;;7.68;3.45;;;;;;;12.86;94.69;101226.44;4976111;28;20037;-85
2021/08/14 07:17:32;;;;;;;9.10;3.95;;;;;;;12.84;94.68;101216.84;4990771;28;20037;-85
2021/08/14 07:19:58;;;;;;;11.88;3.72;;;;;;;12.84;94.84;101219.53;4994485;28;20028;-85
2021/08/14 07:22:24;;;;;;;11.30;3.60;;;;;;;12.93;94.90;101226.53;4999222;28;20140;-84
2021/08/14 07:24:50;;;;;;;16.38;4.13;;;;;;;12.92;94.53;101219.47;4994442;28;20042;-85
2021/08/14 07:27:16;;;;;;;13.68;3.45;;;;;;;12.97;94.44;101222.47;4988817;28;20049;-84
2021/08/14 07:29:42;;;;;;;10.82;3.72;;;;;;;12.91;94.60;101220.47;4987632;28;20019;-84
2021/08/14 07:32:08;;;;;;;9.48;3.60;;;;;;;13.04;94.64;101234.19;4991237;28;20026;-84
2021/08/14 07:34:34;;;;;;;11.32;3.80;;;;;;;13.09;94.34;101228.28;4976150;28;20485;-83
2021/08/14 07:36:59;;;;;;;9.85;3.65;;;;;;;13.17;94.03;101234.44;4977570;28;20084;-85
2021/08/14 07:39:25;;;;;;;10.48;3.90;;;;;;;13.16;94.03;101232.78;5009914;28;20029;-85
2021/08/14 07:41:51;;;;;;;10.45;4.00;;;;;;;13.17;94.13;101234.44;4979120;28;20088;-83
2021/08/14 07:44:17;;;;;;;12.13;3.38;;;;;;;13.22;94.15;101233.91;4984488;28;20072;-83
2021/08/14 07:46:42;;;;;;;12.40;4.00;;;;;;;13.23;94.00;101235.59;4989246;28;20021;-83
2021/08/14 07:49:08;;;;;;;8.95;3.55;;;;;;;13.27;93.72;101244.19;4991898;28;20451;-85
2021/08/14 07:51:33;;;;;;;10.90;3.67;;;;;;;13.28;94.06;101237.75;4970391;28;20057;-82
2021/08/14 07:53:59;;;;;;;12.60;3.60;;;;;;;13.22;93.82;101231.19;4990246;28;20034;-81
2021/08/14 07:56:25;;;;;;;8.88;3.72;;;;;;;13.23;93.72;101235.59;4987966;28;20036;-81
2021/08/14 07:58:50;;;;;;;10.07;3.40;;;;;;;13.16;93.83;101224.66;4991057;28;20037;-79
2021/08/14 08:01:16;;;;;;;9.35;3.33;;;;;;;13.17;93.79;101230.91;4987764;28;20036;-80
2021/08/14 08:03:42;;;;;;;8.63;3.88;;;;;;;13.19;93.66;101237.81;5003298;28;20499;-82
2021/08/14 08:06:08;;;;;;;8.48;3.70;;;;;;;13.18;93.72;101225.34;4993127;28;20100;-82
2021/08/14 08:08:34;;;;;;;7.13;3.67;;;;;;;13.22;93.79;101225.81;4989876;28;20040;-80
2021/08/14 08:11:01;;;;;;;11.48;4.57;;;;;;;13.27;93.60;101228.81;5006674;28;20042;-86
2021/08/14 08:13:27;;;;;;;9.20;3.92;;;;;;;13.30;93.84;101238.44;5006326;28;20018;-85
2021/08/14 08:15:52;;;;;;;11.15;3.53;;;;;;;13.14;93.78;101212.38;4991582;28;20175;-86
2021/08/14 08:18:18;;;;;;;6.88;3.40;;;;;;;13.30;93.59;101217.66;4979752;28;20030;-85
2021/08/14 08:20:44;;;;;;;9.00;3.67;;;;;;;13.33;93.92;101216.44;4990590;28;20089;-86
2021/08/14 08:23:10;;;;;;;13.73;4.25;;;;;;;13.39;93.76;101226.56;5006219;28;20092;-84
2021/08/14 08:25:36;;;;;;;7.50;3.58;;;;;;;13.38;94.05;101230.25;5001987;28;20105;-85
2021/08/14 08:28:03;;;;;;;9.68;3.72;;;;;;;13.35;93.81;101226.06;5013086;28;20034;-87
2021/08/14 08:30:31;;;;;;;14.85;4.18;;;;;;;13.24;94.07;101202.16;4998741;28;20026;-87
2021/08/14 08:32:57;;;;;;;9.98;4.38;;;;;;;13.33;93.86;101208.34;4998110;28;20058;-86
2021/08/14 08:35:23;;;;;;;10.20;3.28;;;;;;;13.58;93.67;101231.41;4999084;28;20493;-86
2021/08/14 08:37:49;;;;;;;10.68;3.92;;;;;;;13.58;93.43;101226.00;4992550;28;20201;-86
2021/08/14 08:40:15;;;;;;;8.57;3.50;;;;;;;13.59;93.61;101222.28;5014760;28;20108;-86
2021/08/14 08:42:42;;;;;;;13.77;3.50;;;;;;;13.57;93.38;101208.09;4996231;28;20053;-86
2021/08/14 08:45:08;;;;;;;8.85;3.75;;;;;;;13.62;93.30;101211.09;4975112;28;20056;-86
2021/08/14 08:47:37;;;;;;;7.72;3.55;;;;;;;13.67;93.84;101223.22;4991127;28;20197;-86
2021/08/14 08:50:06;;;;;;;7.80;2.80;;;;;;;13.62;93.76;101205.69;4996877;28;20508;-85
2021/08/14 08:52:31;;;;;;;7.63;3.58;;;;;;;13.74;93.31;101218.78;4978020;28;20022;-86
2021/08/14 08:54:57;;;;;;;6.03;3.08;;;;;;;13.62;93.48;101189.47;4975087;28;20030;-85
2021/08/14 08:57:24;;;;;;;9.27;3.22;;;;;;;13.74;93.41;101189.03;4979022;28;20014;-84
2021/08/14 08:59:50;;;;;;;7.38;3.53;;;;;;;13.83;93.32;101194.16;4983815;28;20034;-85
2021/08/14 09:02:21;;;;;;;11.27;3.42;;;;;;;13.98;93.12;101204.97;4998604;28;20041;-85
2021/08/14 09:04:47;;;;;;;10.10;4.13;;;;;;;14.01;93.42;101204.59;5020435;28;20053;-84
2021/08/14 09:07:26;;;;;;;8.85;3.63;;;;;;;14.07;93.11;101211.94;5001786;28;20057;-84
2021/08/14 09:09:58;;;;;;;7.43;3.35;;;;;;;14.11;93.14;101214.28;4986478;28;20033;-84
2021/08/14 09:12:39;;;;;;;9.60;3.10;;;;;;;14.12;92.92;101214.09;5003375;28;20026;-85
2021/08/14 09:15:06;;;;;;;7.22;3.13;;;;;;;14.01;92.80;101193.78;4993763;28;20029;-84
2021/08/14 09:17:32;;;;;;;11.65;3.58;;;;;;;14.10;93.15;101199.91;4991079;28;20503;-85
2021/08/14 09:20:24;;;;;;;12.13;3.70;;;;;;;14.11;92.80;101196.19;4995610;28;20017;-85
2021/08/14 09:22:59;;;;;;;10.13;3.42;;;;;;;14.14;92.52;101198.53;5009919;28;20048;-84
2021/08/14 09:25:25;;;;;;;13.95;4.00;;;;;;;14.16;92.42;101196.47;5021080;28;20029;-85
2021/08/14 09:27:56;;;;;;;10.23;3.10;;;;;;;14.20;92.45;101188.81;4992721;28;20538;-84
2021/08/14 09:30:44;;;;;;;6.15;3.03;;;;;;;14.28;92.60;101177.88;4977343;28;20026;-84
2021/08/14 09:33:11;;;;;;;10.23;3.47;;;;;;;14.36;92.35;101193.16;4995493;28;20037;-85
2021/08/14 09:35:37;;;;;;;10.05;3.25;;;;;;;14.30;92.60;101181.25;5003248;28;20042;-84
2021/08/14 09:38:04;;;;;;;8.23;3.17;;;;;;;14.38;91.98;101191.94;4982124;28;20389;-85
2021/08/14 09:40:37;;;;;;;7.68;2.50;;;;;;;14.39;91.62;101190.91;4983732;28;20030;-84
2021/08/14 09:43:03;;;;;;;8.85;3.28;;;;;;;14.33;91.66;101182.72;4987600;28;20033;-86
2021/08/14 09:45:29;;;;;;;7.10;3.20;;;;;;;14.20;91.68;101159.88;5001944;28;20024;-86
2021/08/14 09:47:55;;;;;;;10.07;3.25;;;;;;;14.25;91.63;101172.84;5011645;28;20057;-86
2021/08/14 09:50:34;;;;;;;9.45;3.75;;;;;;;14.28;91.64;101192.22;5017349;28;20632;-86
2021/08/14 09:53:11;;;;;;;9.95;3.17;;;;;;;14.29;91.50;101195.81;4985861;28;20084;-85
2021/08/14 09:55:36;;;;;;;12.07;3.88;;;;;;;14.17;91.79;101176.50;4993807;28;20022;-85
2021/08/14 09:58:03;;;;;;;6.50;2.95;;;;;;;14.13;91.75;101158.13;5000009;28;20025;-84
2021/08/14 10:00:29;;;;;;;7.43;3.00;;;;;;;14.33;91.92;101175.44;4992932;28;20119;-84
2021/08/14 10:03:00;;;;;;;7.78;3.63;;;;;;;14.34;91.88;101171.69;4991521;28;20496;-84
2021/08/14 10:05:25;;;;;;;9.20;3.03;;;;;;;14.48;92.20;101178.13;4993605;28;20022;-85
2021/08/14 10:07:51;;;;;;;8.07;2.85;;;;;;;14.45;91.84;101178.50;4991070;28;20050;-84
2021/08/14 10:10:17;;;;;;;7.00;3.00;;;;;;;14.51;91.67;101185.84;4986382;28;20017;-87
2021/08/14 10:12:43;;;;;;;10.07;3.60;;;;;;;14.59;91.65;101174.09;4977843;28;20021;-86
2021/08/14 10:15:09;;;;;;;6.90;2.72;;;;;;;14.49;91.08;101148.16;4985893;28;20121;-86
2021/08/14 10:17:35;;;;;;;10.30;3.45;;;;;;;14.48;91.13;101151.06;4989138;28;20110;-84
2021/08/14 10:20:01;;;;;;;8.98;3.10;;;;;;;14.49;91.20;101148.16;4992520;28;20032;-84
2021/08/14 10:22:26;;;;;;;10.45;3.30;;;;;;;14.46;91.25;101148.53;4994207;28;20034;-86
2021/08/14 10:24:54;;;;;;;9.57;3.63;;;;;;;14.55;91.25;101149.28;5003340;28;20522;-85
2021/08/14 10:27:21;;;;;;;7.93;2.83;;;;;;;14.49;91.30;101123.78;4994418;28;20041;-84
2021/08/14 10:29:59;;;;;;;10.10;3.53;;;;;;;14.59;91.23;101136.22;4993870;28;20029;-85
2021/08/14 10:32:31;;;;;;;10.25;2.80;;;;;;;14.61;91.32;101140.41;4981977;28;20057;-86
2021/08/14 10:35:11;;;;;;;8.70;2.65;;;;;;;14.65;91.30;101140.84;5008249;28;20061;-86
2021/08/14 10:37:38;;;;;;;8.13;2.88;;;;;;;14.64;91.63;101148.13;4994693;28;20055;-85
2021/08/14 10:40:05;;;;;;;9.77;3.08;;;;;;;14.65;91.00;101149.78;5002420;28;20472;-85
2021/08/14 10:42:57;;;;;;;9.50;2.97;;;;;;;14.67;90.79;101144.22;4994837;28;20040;-87
2021/08/14 10:45:37;;;;;;;8.30;2.72;;;;;;;14.65;90.61;101155.22;5001717;28;20459;-85
2021/08/14 10:48:06;;;;;;;7.50;2.80;;;;;;;14.56;91.04;101136.59;4988918;28;20030;-86
2021/08/14 10:50:32;;;;;;;11.50;3.30;;;;;;;14.60;91.18;101154.13;4982855;28;20026;-85
2021/08/14 10:53:10;;;;;;;5.57;2.78;;;;;;;14.54;91.48;101161.13;5020297;28;20026;-85
2021/08/14 10:55:36;;;;;;;10.00;3.53;;;;;;;14.43;91.52;101153.50;4994627;28;20026;-87
2021/08/14 10:58:24;;;;;;;9.15;3.42;;;;;;;14.55;91.66;101162.81;5006320;28;20096;-84
2021/08/14 11:01:13;;;;;;;6.18;2.63;;;;;;;14.54;91.56;101166.56;5008589;28;20030;-86
2021/08/14 11:03:40;;;;;;;9.35;3.33;;;;;;;14.51;91.56;101145.25;5014719;28;20595;-85
2021/08/14 11:06:25;;;;;;;8.65;2.88;;;;;;;14.60;91.52;101164.94;4988880;28;20050;-86
2021/08/14 11:09:17;;;;;;;9.73;3.22;;;;;;;14.58;91.41;101156.16;4992561;28;20034;-85
2021/08/14 11:11:44;;;;;;;15.50;3.27;;;;;;;14.48;91.37;101140.25;4994896;28;20624;-85
2021/08/14 11:14:13;;;;;;;9.70;3.10;;;;;;;14.54;91.06;101157.59;4993414;28;20287;-84
2021/08/14 11:17:01;;;;;;;8.13;2.67;;;;;;;14.50;90.88;101151.69;5008587;28;20022;-87
2021/08/14 11:20:03;;;;;;;8.50;2.97;;;;;;;14.60;91.13;101159.53;5012990;28;20064;-85